sensor_id;sensor_type;location;lat;lon;timestamp;P1;durP1;ratioP1;P2;durP2;ratioP2
71771;SDS011;59606;52.138;5.424;2023-04-29T00:00:44;34.67;;;13.23;;
71771;SDS011;59606;52.138;5.424;2023-04-29T00:03:10;30.50;;;13.23;;
71771;SDS011;59606;52.138;5.424;2023-04-29T00:05:38;33.77;;;13.37;;
71771;SDS011;59606;52.138;5.424;2023-04-29T00:08:04;30.67;;;14.38;;
71771;SDS011;59606;52.138;5.424;2023-04-29T00:10:31;33.08;;;13.77;;
71771;SDS011;59606;52.138;5.424;2023-04-29T00:12:58;37.88;;;14.98;;
71771;SDS011;59606;52.138;5.424;2023-04-29T00:15:24;33.35;;;13.63;;
71771;SDS011;59606;52.138;5.424;2023-04-29T00:17:51;31.47;;;14.17;;
71771;SDS011;59606;52.138;5.424;2023-04-29T00:20:17;32.03;;;14.48;;
71771;SDS011;59606;52.138;5.424;2023-04-29T00:22:44;41.17;;;15.18;;
71771;SDS011;59606;52.138;5.424;2023-04-29T00:25:10;30.27;;;13.25;;
71771;SDS011;59606;52.138;5.424;2023-04-29T00:27:37;31.00;;;14.15;;
71771;SDS011;59606;52.138;5.424;2023-04-29T00:30:05;31.67;;;14.00;;
71771;SDS011;59606;52.138;5.424;2023-04-29T00:32:33;30.63;;;12.30;;
71771;SDS011;59606;52.138;5.424;2023-04-29T00:35:00;39.92;;;14.85;;
71771;SDS011;59606;52.138;5.424;2023-04-29T00:37:27;33.72;;;13.85;;
71771;SDS011;59606;52.138;5.424;2023-04-29T00:39:53;29.80;;;13.43;;
71771;SDS011;59606;52.138;5.424;2023-04-29T00:42:20;32.00;;;13.73;;
71771;SDS011;59606;52.138;5.424;2023-04-29T00:44:46;34.72;;;14.52;;
71771;SDS011;59606;52.138;5.424;2023-04-29T00:47:14;36.35;;;14.27;;
71771;SDS011;59606;52.138;5.424;2023-04-29T00:49:40;39.30;;;13.70;;
71771;SDS011;59606;52.138;5.424;2023-04-29T00:52:07;35.22;;;14.60;;
71771;SDS011;59606;52.138;5.424;2023-04-29T00:54:36;27.07;;;13.33;;
71771;SDS011;59606;52.138;5.424;2023-04-29T00:57:03;30.35;;;13.05;;
71771;SDS011;59606;52.138;5.424;2023-04-29T00:59:31;27.25;;;13.00;;
71771;SDS011;59606;52.138;5.424;2023-04-29T01:02:00;30.08;;;12.65;;
71771;SDS011;59606;52.138;5.424;2023-04-29T01:04:31;29.88;;;13.82;;
71771;SDS011;59606;52.138;5.424;2023-04-29T01:15:11;28.88;;;12.40;;
71771;SDS011;59606;52.138;5.424;2023-04-29T01:17:58;30.73;;;13.02;;
71771;SDS011;59606;52.138;5.424;2023-04-29T01:20:31;31.53;;;12.90;;
71771;SDS011;59606;52.138;5.424;2023-04-29T01:22:58;32.38;;;12.45;;
71771;SDS011;59606;52.138;5.424;2023-04-29T01:25:25;25.98;;;12.45;;
71771;SDS011;59606;52.138;5.424;2023-04-29T01:39:36;24.80;;;12.15;;
71771;SDS011;59606;52.138;5.424;2023-04-29T01:42:21;28.95;;;12.43;;
71771;SDS011;59606;52.138;5.424;2023-04-29T01:44:52;25.02;;;11.60;;
71771;SDS011;59606;52.138;5.424;2023-04-29T01:47:20;25.00;;;11.40;;
71771;SDS011;59606;52.138;5.424;2023-04-29T01:49:48;22.95;;;11.90;;
71771;SDS011;59606;52.138;5.424;2023-04-29T01:52:14;27.70;;;12.20;;
71771;SDS011;59606;52.138;5.424;2023-04-29T01:54:41;24.13;;;12.10;;
71771;SDS011;59606;52.138;5.424;2023-04-29T01:57:08;23.42;;;11.23;;
71771;SDS011;59606;52.138;5.424;2023-04-29T01:59:34;26.23;;;11.90;;
71771;SDS011;59606;52.138;5.424;2023-04-29T02:02:01;26.83;;;11.88;;
71771;SDS011;59606;52.138;5.424;2023-04-29T02:04:28;28.17;;;12.25;;
71771;SDS011;59606;52.138;5.424;2023-04-29T02:06:54;28.55;;;12.70;;
71771;SDS011;59606;52.138;5.424;2023-04-29T02:09:20;28.13;;;12.45;;
71771;SDS011;59606;52.138;5.424;2023-04-29T02:14:18;27.08;;;12.80;;
71771;SDS011;59606;52.138;5.424;2023-04-29T02:16:44;28.00;;;12.10;;
71771;SDS011;59606;52.138;5.424;2023-04-29T02:19:11;26.27;;;11.38;;
71771;SDS011;59606;52.138;5.424;2023-04-29T02:21:38;25.10;;;11.85;;
71771;SDS011;59606;52.138;5.424;2023-04-29T02:24:05;21.20;;;10.57;;
71771;SDS011;59606;52.138;5.424;2023-04-29T02:26:32;27.25;;;11.02;;
71771;SDS011;59606;52.138;5.424;2023-04-29T02:28:59;24.90;;;9.00;;
71771;SDS011;59606;52.138;5.424;2023-04-29T02:31:26;24.33;;;11.32;;
71771;SDS011;59606;52.138;5.424;2023-04-29T02:33:54;21.73;;;10.70;;
71771;SDS011;59606;52.138;5.424;2023-04-29T02:36:21;23.53;;;10.33;;
71771;SDS011;59606;52.138;5.424;2023-04-29T02:38:47;21.55;;;9.82;;
71771;SDS011;59606;52.138;5.424;2023-04-29T02:41:16;23.05;;;10.10;;
71771;SDS011;59606;52.138;5.424;2023-04-29T02:43:43;21.33;;;10.13;;
71771;SDS011;59606;52.138;5.424;2023-04-29T02:46:10;21.33;;;9.52;;
71771;SDS011;59606;52.138;5.424;2023-04-29T02:48:37;18.43;;;9.30;;
71771;SDS011;59606;52.138;5.424;2023-04-29T02:51:08;23.45;;;10.27;;
71771;SDS011;59606;52.138;5.424;2023-04-29T02:53:34;21.70;;;9.32;;
71771;SDS011;59606;52.138;5.424;2023-04-29T02:56:01;19.67;;;9.27;;
71771;SDS011;59606;52.138;5.424;2023-04-29T02:58:28;22.83;;;8.75;;
71771;SDS011;59606;52.138;5.424;2023-04-29T03:00:54;17.80;;;8.63;;
71771;SDS011;59606;52.138;5.424;2023-04-29T03:03:21;18.13;;;9.55;;
71771;SDS011;59606;52.138;5.424;2023-04-29T03:05:48;24.15;;;9.45;;
71771;SDS011;59606;52.138;5.424;2023-04-29T03:08:15;18.15;;;9.60;;
71771;SDS011;59606;52.138;5.424;2023-04-29T03:10:41;17.30;;;9.73;;
71771;SDS011;59606;52.138;5.424;2023-04-29T03:13:08;19.47;;;9.43;;
71771;SDS011;59606;52.138;5.424;2023-04-29T03:15:34;23.52;;;10.50;;
71771;SDS011;59606;52.138;5.424;2023-04-29T03:18:02;22.13;;;9.90;;
71771;SDS011;59606;52.138;5.424;2023-04-29T03:20:30;24.17;;;10.75;;
71771;SDS011;59606;52.138;5.424;2023-04-29T03:22:57;24.23;;;9.95;;
71771;SDS011;59606;52.138;5.424;2023-04-29T03:25:26;23.40;;;10.37;;
71771;SDS011;59606;52.138;5.424;2023-04-29T03:27:53;18.73;;;8.50;;
71771;SDS011;59606;52.138;5.424;2023-04-29T03:30:20;21.00;;;9.80;;
71771;SDS011;59606;52.138;5.424;2023-04-29T03:32:46;23.75;;;10.02;;
71771;SDS011;59606;52.138;5.424;2023-04-29T03:35:13;21.75;;;9.68;;
71771;SDS011;59606;52.138;5.424;2023-04-29T03:37:41;21.03;;;9.37;;
71771;SDS011;59606;52.138;5.424;2023-04-29T03:40:09;24.40;;;8.95;;
71771;SDS011;59606;52.138;5.424;2023-04-29T03:42:37;23.15;;;9.82;;
71771;SDS011;59606;52.138;5.424;2023-04-29T03:45:03;21.52;;;9.98;;
71771;SDS011;59606;52.138;5.424;2023-04-29T03:47:30;19.58;;;9.85;;
71771;SDS011;59606;52.138;5.424;2023-04-29T03:49:57;22.40;;;10.30;;
71771;SDS011;59606;52.138;5.424;2023-04-29T03:52:23;22.27;;;9.65;;
71771;SDS011;59606;52.138;5.424;2023-04-29T03:54:50;19.67;;;9.32;;
71771;SDS011;59606;52.138;5.424;2023-04-29T03:57:17;21.85;;;10.40;;
71771;SDS011;59606;52.138;5.424;2023-04-29T03:59:43;24.13;;;10.98;;
71771;SDS011;59606;52.138;5.424;2023-04-29T04:02:10;20.43;;;9.17;;
71771;SDS011;59606;52.138;5.424;2023-04-29T04:04:37;18.75;;;9.93;;
71771;SDS011;59606;52.138;5.424;2023-04-29T04:07:04;20.50;;;9.70;;
71771;SDS011;59606;52.138;5.424;2023-04-29T04:09:31;20.55;;;10.13;;
71771;SDS011;59606;52.138;5.424;2023-04-29T04:11:58;19.08;;;9.32;;
71771;SDS011;59606;52.138;5.424;2023-04-29T04:14:26;18.93;;;9.70;;
71771;SDS011;59606;52.138;5.424;2023-04-29T04:16:52;22.15;;;9.85;;
71771;SDS011;59606;52.138;5.424;2023-04-29T04:19:19;21.80;;;9.80;;
71771;SDS011;59606;52.138;5.424;2023-04-29T04:21:46;23.58;;;9.80;;
71771;SDS011;59606;52.138;5.424;2023-04-29T04:24:12;24.50;;;10.48;;
71771;SDS011;59606;52.138;5.424;2023-04-29T04:26:39;18.27;;;9.23;;
71771;SDS011;59606;52.138;5.424;2023-04-29T04:29:07;19.48;;;8.40;;
71771;SDS011;59606;52.138;5.424;2023-04-29T04:31:33;18.92;;;9.25;;
71771;SDS011;59606;52.138;5.424;2023-04-29T04:34:01;16.90;;;8.75;;
71771;SDS011;59606;52.138;5.424;2023-04-29T04:36:28;17.08;;;8.70;;
71771;SDS011;59606;52.138;5.424;2023-04-29T04:38:54;16.50;;;8.40;;
71771;SDS011;59606;52.138;5.424;2023-04-29T04:41:21;18.10;;;8.45;;
71771;SDS011;59606;52.138;5.424;2023-04-29T04:43:47;17.30;;;9.30;;
71771;SDS011;59606;52.138;5.424;2023-04-29T04:46:14;20.38;;;8.93;;
71771;SDS011;59606;52.138;5.424;2023-04-29T04:48:42;20.30;;;8.93;;
71771;SDS011;59606;52.138;5.424;2023-04-29T04:51:09;20.23;;;9.03;;
71771;SDS011;59606;52.138;5.424;2023-04-29T04:53:37;17.73;;;9.38;;
71771;SDS011;59606;52.138;5.424;2023-04-29T04:56:04;19.90;;;8.73;;
71771;SDS011;59606;52.138;5.424;2023-04-29T04:58:32;16.92;;;8.35;;
71771;SDS011;59606;52.138;5.424;2023-04-29T05:00:59;19.15;;;8.85;;
71771;SDS011;59606;52.138;5.424;2023-04-29T05:03:26;18.63;;;8.73;;
71771;SDS011;59606;52.138;5.424;2023-04-29T05:05:53;19.45;;;8.30;;
71771;SDS011;59606;52.138;5.424;2023-04-29T05:08:23;20.25;;;8.98;;
71771;SDS011;59606;52.138;5.424;2023-04-29T05:10:51;15.77;;;8.27;;
71771;SDS011;59606;52.138;5.424;2023-04-29T05:13:19;17.25;;;8.60;;
71771;SDS011;59606;52.138;5.424;2023-04-29T05:15:46;18.27;;;8.60;;
71771;SDS011;59606;52.138;5.424;2023-04-29T05:18:13;19.55;;;8.35;;
71771;SDS011;59606;52.138;5.424;2023-04-29T05:20:39;21.55;;;9.00;;
71771;SDS011;59606;52.138;5.424;2023-04-29T05:23:06;23.52;;;9.70;;
71771;SDS011;59606;52.138;5.424;2023-04-29T05:25:32;16.10;;;8.35;;
71771;SDS011;59606;52.138;5.424;2023-04-29T05:28:00;17.63;;;8.67;;
71771;SDS011;59606;52.138;5.424;2023-04-29T05:30:27;23.95;;;9.10;;
71771;SDS011;59606;52.138;5.424;2023-04-29T05:32:54;19.92;;;8.00;;
71771;SDS011;59606;52.138;5.424;2023-04-29T05:35:21;16.48;;;7.85;;
71771;SDS011;59606;52.138;5.424;2023-04-29T05:37:48;19.17;;;8.85;;
71771;SDS011;59606;52.138;5.424;2023-04-29T05:40:14;17.97;;;8.87;;
71771;SDS011;59606;52.138;5.424;2023-04-29T05:42:41;19.73;;;8.77;;
71771;SDS011;59606;52.138;5.424;2023-04-29T05:45:08;17.02;;;8.52;;
71771;SDS011;59606;52.138;5.424;2023-04-29T05:47:35;17.10;;;7.75;;
71771;SDS011;59606;52.138;5.424;2023-04-29T05:50:01;18.30;;;8.85;;
71771;SDS011;59606;52.138;5.424;2023-04-29T05:52:29;13.63;;;7.77;;
71771;SDS011;59606;52.138;5.424;2023-04-29T05:54:55;20.27;;;9.27;;
71771;SDS011;59606;52.138;5.424;2023-04-29T05:57:22;20.05;;;8.57;;
71771;SDS011;59606;52.138;5.424;2023-04-29T05:59:48;17.02;;;8.82;;
71771;SDS011;59606;52.138;5.424;2023-04-29T06:02:15;17.40;;;8.68;;
71771;SDS011;59606;52.138;5.424;2023-04-29T06:04:41;16.30;;;8.77;;
71771;SDS011;59606;52.138;5.424;2023-04-29T06:07:08;19.80;;;9.65;;
71771;SDS011;59606;52.138;5.424;2023-04-29T06:09:35;19.58;;;8.35;;
71771;SDS011;59606;52.138;5.424;2023-04-29T06:12:02;20.25;;;9.35;;
71771;SDS011;59606;52.138;5.424;2023-04-29T06:14:28;19.55;;;8.57;;
71771;SDS011;59606;52.138;5.424;2023-04-29T06:16:55;19.80;;;9.07;;
71771;SDS011;59606;52.138;5.424;2023-04-29T06:19:21;20.30;;;9.20;;
71771;SDS011;59606;52.138;5.424;2023-04-29T06:21:48;20.48;;;10.32;;
71771;SDS011;59606;52.138;5.424;2023-04-29T06:24:15;22.70;;;10.15;;
71771;SDS011;59606;52.138;5.424;2023-04-29T06:26:42;24.85;;;9.57;;
71771;SDS011;59606;52.138;5.424;2023-04-29T06:29:09;22.80;;;9.30;;
71771;SDS011;59606;52.138;5.424;2023-04-29T06:31:35;17.75;;;9.00;;
71771;SDS011;59606;52.138;5.424;2023-04-29T06:34:02;21.70;;;8.98;;
71771;SDS011;59606;52.138;5.424;2023-04-29T06:36:28;20.33;;;8.48;;
71771;SDS011;59606;52.138;5.424;2023-04-29T06:38:55;19.58;;;8.13;;
71771;SDS011;59606;52.138;5.424;2023-04-29T06:41:21;22.03;;;9.20;;
71771;SDS011;59606;52.138;5.424;2023-04-29T06:43:48;21.15;;;9.00;;
71771;SDS011;59606;52.138;5.424;2023-04-29T06:46:15;16.98;;;8.30;;
71771;SDS011;59606;52.138;5.424;2023-04-29T06:48:42;20.35;;;8.98;;
71771;SDS011;59606;52.138;5.424;2023-04-29T06:51:08;14.85;;;7.72;;
71771;SDS011;59606;52.138;5.424;2023-04-29T06:53:35;22.63;;;9.23;;
71771;SDS011;59606;52.138;5.424;2023-04-29T06:56:01;21.55;;;8.32;;
71771;SDS011;59606;52.138;5.424;2023-04-29T06:58:28;21.67;;;8.57;;
71771;SDS011;59606;52.138;5.424;2023-04-29T07:00:54;22.88;;;8.52;;
71771;SDS011;59606;52.138;5.424;2023-04-29T07:03:21;17.83;;;8.70;;
71771;SDS011;59606;52.138;5.424;2023-04-29T07:05:48;19.23;;;8.57;;
71771;SDS011;59606;52.138;5.424;2023-04-29T07:08:16;16.13;;;8.27;;
71771;SDS011;59606;52.138;5.424;2023-04-29T07:10:43;17.10;;;7.63;;
71771;SDS011;59606;52.138;5.424;2023-04-29T07:13:09;14.15;;;7.47;;
71771;SDS011;59606;52.138;5.424;2023-04-29T07:15:36;16.63;;;7.72;;
71771;SDS011;59606;52.138;5.424;2023-04-29T07:18:05;17.43;;;7.30;;
71771;SDS011;59606;52.138;5.424;2023-04-29T07:20:35;15.80;;;7.30;;
71771;SDS011;59606;52.138;5.424;2023-04-29T07:23:02;14.63;;;7.18;;
71771;SDS011;59606;52.138;5.424;2023-04-29T07:25:28;19.95;;;7.47;;
71771;SDS011;59606;52.138;5.424;2023-04-29T07:27:56;16.20;;;6.60;;
71771;SDS011;59606;52.138;5.424;2023-04-29T07:30:22;14.57;;;6.67;;
71771;SDS011;59606;52.138;5.424;2023-04-29T07:32:49;15.23;;;7.07;;
71771;SDS011;59606;52.138;5.424;2023-04-29T07:35:15;15.32;;;6.15;;
71771;SDS011;59606;52.138;5.424;2023-04-29T07:37:42;11.55;;;6.07;;
71771;SDS011;59606;52.138;5.424;2023-04-29T07:40:09;13.57;;;6.55;;
71771;SDS011;59606;52.138;5.424;2023-04-29T07:42:36;11.93;;;5.70;;
71771;SDS011;59606;52.138;5.424;2023-04-29T07:45:03;17.27;;;6.22;;
71771;SDS011;59606;52.138;5.424;2023-04-29T07:47:29;15.88;;;6.18;;
71771;SDS011;59606;52.138;5.424;2023-04-29T07:49:56;15.48;;;6.93;;
71771;SDS011;59606;52.138;5.424;2023-04-29T07:52:23;14.30;;;6.15;;
71771;SDS011;59606;52.138;5.424;2023-04-29T07:54:51;13.70;;;5.63;;
71771;SDS011;59606;52.138;5.424;2023-04-29T07:57:18;16.95;;;6.18;;
71771;SDS011;59606;52.138;5.424;2023-04-29T07:59:45;12.88;;;5.40;;
71771;SDS011;59606;52.138;5.424;2023-04-29T08:02:11;10.43;;;5.13;;
71771;SDS011;59606;52.138;5.424;2023-04-29T08:04:39;12.85;;;5.53;;
71771;SDS011;59606;52.138;5.424;2023-04-29T08:07:10;12.20;;;5.30;;
71771;SDS011;59606;52.138;5.424;2023-04-29T08:09:36;10.82;;;5.28;;
71771;SDS011;59606;52.138;5.424;2023-04-29T08:12:03;11.30;;;5.43;;
71771;SDS011;59606;52.138;5.424;2023-04-29T08:14:29;13.35;;;5.10;;
71771;SDS011;59606;52.138;5.424;2023-04-29T08:16:56;14.63;;;5.18;;
71771;SDS011;59606;52.138;5.424;2023-04-29T08:19:22;11.10;;;5.20;;
71771;SDS011;59606;52.138;5.424;2023-04-29T08:21:49;12.80;;;5.55;;
71771;SDS011;59606;52.138;5.424;2023-04-29T08:24:17;12.75;;;5.80;;
71771;SDS011;59606;52.138;5.424;2023-04-29T08:26:43;11.52;;;4.55;;
71771;SDS011;59606;52.138;5.424;2023-04-29T08:29:10;17.33;;;5.30;;
71771;SDS011;59606;52.138;5.424;2023-04-29T08:31:36;12.40;;;5.00;;
71771;SDS011;59606;52.138;5.424;2023-04-29T08:34:03;12.77;;;4.93;;
71771;SDS011;59606;52.138;5.424;2023-04-29T08:36:29;12.82;;;5.68;;
71771;SDS011;59606;52.138;5.424;2023-04-29T08:38:59;9.27;;;4.70;;
71771;SDS011;59606;52.138;5.424;2023-04-29T08:41:25;11.65;;;5.50;;
71771;SDS011;59606;52.138;5.424;2023-04-29T08:43:52;12.07;;;4.93;;
71771;SDS011;59606;52.138;5.424;2023-04-29T08:46:18;11.30;;;5.05;;
71771;SDS011;59606;52.138;5.424;2023-04-29T08:48:46;9.80;;;4.30;;
71771;SDS011;59606;52.138;5.424;2023-04-29T08:51:13;13.77;;;5.28;;
71771;SDS011;59606;52.138;5.424;2023-04-29T08:53:40;10.38;;;5.50;;
71771;SDS011;59606;52.138;5.424;2023-04-29T08:56:14;9.63;;;4.50;;
71771;SDS011;59606;52.138;5.424;2023-04-29T08:58:43;13.85;;;4.80;;
71771;SDS011;59606;52.138;5.424;2023-04-29T09:01:10;10.25;;;4.28;;
71771;SDS011;59606;52.138;5.424;2023-04-29T09:06:16;9.70;;;4.60;;
71771;SDS011;59606;52.138;5.424;2023-04-29T09:08:43;11.23;;;4.83;;
71771;SDS011;59606;52.138;5.424;2023-04-29T09:11:12;11.77;;;4.82;;
71771;SDS011;59606;52.138;5.424;2023-04-29T09:13:39;9.40;;;5.28;;
71771;SDS011;59606;52.138;5.424;2023-04-29T09:16:09;11.27;;;4.88;;
71771;SDS011;59606;52.138;5.424;2023-04-29T09:18:42;12.85;;;4.72;;
71771;SDS011;59606;52.138;5.424;2023-04-29T09:23:48;11.45;;;5.13;;
71771;SDS011;59606;52.138;5.424;2023-04-29T09:26:25;10.90;;;4.78;;
71771;SDS011;59606;52.138;5.424;2023-04-29T09:29:11;12.05;;;5.55;;
71771;SDS011;59606;52.138;5.424;2023-04-29T09:31:39;9.98;;;4.53;;
71771;SDS011;59606;52.138;5.424;2023-04-29T09:34:07;10.00;;;5.00;;
71771;SDS011;59606;52.138;5.424;2023-04-29T09:39:08;10.52;;;4.35;;
71771;SDS011;59606;52.138;5.424;2023-04-29T09:44:20;11.43;;;4.35;;
71771;SDS011;59606;52.138;5.424;2023-04-29T09:46:57;8.33;;;3.57;;
71771;SDS011;59606;52.138;5.424;2023-04-29T09:49:25;7.78;;;4.32;;
71771;SDS011;59606;52.138;5.424;2023-04-29T09:51:57;10.77;;;4.45;;
71771;SDS011;59606;52.138;5.424;2023-04-29T09:54:26;8.48;;;4.05;;
71771;SDS011;59606;52.138;5.424;2023-04-29T09:56:54;10.65;;;3.95;;
71771;SDS011;59606;52.138;5.424;2023-04-29T09:59:22;8.33;;;4.10;;
71771;SDS011;59606;52.138;5.424;2023-04-29T10:01:55;8.38;;;3.90;;
71771;SDS011;59606;52.138;5.424;2023-04-29T10:04:25;9.43;;;4.32;;
71771;SDS011;59606;52.138;5.424;2023-04-29T10:06:53;10.18;;;4.22;;
71771;SDS011;59606;52.138;5.424;2023-04-29T10:09:21;7.55;;;3.80;;
71771;SDS011;59606;52.138;5.424;2023-04-29T10:11:49;13.87;;;4.67;;
71771;SDS011;59606;52.138;5.424;2023-04-29T10:14:23;10.00;;;4.88;;
71771;SDS011;59606;52.138;5.424;2023-04-29T10:17:03;8.60;;;4.53;;
71771;SDS011;59606;52.138;5.424;2023-04-29T10:19:44;9.80;;;3.78;;
71771;SDS011;59606;52.138;5.424;2023-04-29T10:22:21;8.20;;;3.65;;
71771;SDS011;59606;52.138;5.424;2023-04-29T10:24:54;8.00;;;3.77;;
71771;SDS011;59606;52.138;5.424;2023-04-29T10:27:24;8.68;;;3.50;;
71771;SDS011;59606;52.138;5.424;2023-04-29T10:29:52;8.65;;;4.20;;
71771;SDS011;59606;52.138;5.424;2023-04-29T10:32:20;7.20;;;3.42;;
71771;SDS011;59606;52.138;5.424;2023-04-29T10:34:47;8.43;;;3.78;;
71771;SDS011;59606;52.138;5.424;2023-04-29T10:37:15;8.00;;;3.63;;
71771;SDS011;59606;52.138;5.424;2023-04-29T10:39:45;8.25;;;3.90;;
71771;SDS011;59606;52.138;5.424;2023-04-29T10:42:27;8.32;;;4.25;;
71771;SDS011;59606;52.138;5.424;2023-04-29T10:45:19;8.00;;;4.10;;
71771;SDS011;59606;52.138;5.424;2023-04-29T10:50:32;8.37;;;4.33;;
71771;SDS011;59606;52.138;5.424;2023-04-29T10:53:10;8.60;;;3.45;;
71771;SDS011;59606;52.138;5.424;2023-04-29T10:55:37;7.45;;;3.60;;
71771;SDS011;59606;52.138;5.424;2023-04-29T10:58:04;10.82;;;3.60;;
71771;SDS011;59606;52.138;5.424;2023-04-29T11:00:32;8.73;;;3.90;;
71771;SDS011;59606;52.138;5.424;2023-04-29T11:03:00;9.53;;;3.37;;
71771;SDS011;59606;52.138;5.424;2023-04-29T11:05:28;10.65;;;3.92;;
71771;SDS011;59606;52.138;5.424;2023-04-29T11:10:36;7.35;;;3.53;;
71771;SDS011;59606;52.138;5.424;2023-04-29T11:16:08;6.57;;;3.10;;
71771;SDS011;59606;52.138;5.424;2023-04-29T11:19:02;5.32;;;3.03;;
71771;SDS011;59606;52.138;5.424;2023-04-29T11:21:33;6.63;;;3.33;;
71771;SDS011;59606;52.138;5.424;2023-04-29T11:24:01;6.97;;;3.63;;
71771;SDS011;59606;52.138;5.424;2023-04-29T11:26:29;6.05;;;3.30;;
71771;SDS011;59606;52.138;5.424;2023-04-29T11:28:56;6.40;;;3.57;;
71771;SDS011;59606;52.138;5.424;2023-04-29T11:31:29;7.20;;;3.60;;
71771;SDS011;59606;52.138;5.424;2023-04-29T11:33:57;7.88;;;3.58;;
71771;SDS011;59606;52.138;5.424;2023-04-29T11:36:24;8.90;;;3.88;;
71771;SDS011;59606;52.138;5.424;2023-04-29T11:38:51;8.40;;;3.90;;
71771;SDS011;59606;52.138;5.424;2023-04-29T11:41:18;6.70;;;3.40;;
71771;SDS011;59606;52.138;5.424;2023-04-29T11:43:47;9.65;;;3.97;;
71771;SDS011;59606;52.138;5.424;2023-04-29T11:46:21;8.07;;;3.72;;
71771;SDS011;59606;52.138;5.424;2023-04-29T11:48:52;8.95;;;3.90;;
71771;SDS011;59606;52.138;5.424;2023-04-29T11:51:19;8.57;;;3.83;;
71771;SDS011;59606;52.138;5.424;2023-04-29T11:53:47;8.73;;;4.53;;
71771;SDS011;59606;52.138;5.424;2023-04-29T11:56:14;10.38;;;3.65;;
71771;SDS011;59606;52.138;5.424;2023-04-29T11:58:41;10.88;;;3.95;;
71771;SDS011;59606;52.138;5.424;2023-04-29T12:01:08;8.23;;;3.78;;
71771;SDS011;59606;52.138;5.424;2023-04-29T12:03:35;10.40;;;4.28;;
71771;SDS011;59606;52.138;5.424;2023-04-29T12:06:02;9.33;;;3.73;;
71771;SDS011;59606;52.138;5.424;2023-04-29T12:08:29;7.85;;;3.90;;
71771;SDS011;59606;52.138;5.424;2023-04-29T12:10:57;9.50;;;3.83;;
71771;SDS011;59606;52.138;5.424;2023-04-29T12:13:26;9.57;;;3.30;;
71771;SDS011;59606;52.138;5.424;2023-04-29T12:15:54;8.65;;;3.90;;
71771;SDS011;59606;52.138;5.424;2023-04-29T12:18:22;7.23;;;3.60;;
71771;SDS011;59606;52.138;5.424;2023-04-29T12:20:49;6.63;;;3.38;;
71771;SDS011;59606;52.138;5.424;2023-04-29T12:23:17;9.52;;;4.13;;
71771;SDS011;59606;52.138;5.424;2023-04-29T12:25:48;9.27;;;4.30;;
71771;SDS011;59606;52.138;5.424;2023-04-29T12:28:16;7.22;;;3.75;;
71771;SDS011;59606;52.138;5.424;2023-04-29T12:30:44;9.50;;;4.07;;
71771;SDS011;59606;52.138;5.424;2023-04-29T12:33:25;9.63;;;4.55;;
71771;SDS011;59606;52.138;5.424;2023-04-29T12:35:53;10.82;;;4.63;;
71771;SDS011;59606;52.138;5.424;2023-04-29T12:38:22;8.73;;;3.90;;
71771;SDS011;59606;52.138;5.424;2023-04-29T12:40:55;8.95;;;4.03;;
71771;SDS011;59606;52.138;5.424;2023-04-29T12:43:27;7.67;;;3.70;;
71771;SDS011;59606;52.138;5.424;2023-04-29T12:46:02;9.02;;;4.00;;
71771;SDS011;59606;52.138;5.424;2023-04-29T12:48:29;9.43;;;4.60;;
71771;SDS011;59606;52.138;5.424;2023-04-29T12:51:02;10.23;;;4.10;;
71771;SDS011;59606;52.138;5.424;2023-04-29T12:53:30;8.77;;;4.20;;
71771;SDS011;59606;52.138;5.424;2023-04-29T12:55:57;9.13;;;3.97;;
71771;SDS011;59606;52.138;5.424;2023-04-29T12:58:23;8.18;;;4.00;;
71771;SDS011;59606;52.138;5.424;2023-04-29T13:00:50;10.02;;;4.18;;
71771;SDS011;59606;52.138;5.424;2023-04-29T13:03:16;8.90;;;4.25;;
71771;SDS011;59606;52.138;5.424;2023-04-29T13:05:47;8.23;;;4.15;;
71771;SDS011;59606;52.138;5.424;2023-04-29T13:08:16;8.23;;;4.33;;
71771;SDS011;59606;52.138;5.424;2023-04-29T13:10:44;8.75;;;3.72;;
71771;SDS011;59606;52.138;5.424;2023-04-29T13:13:11;11.50;;;3.72;;
71771;SDS011;59606;52.138;5.424;2023-04-29T13:15:37;8.70;;;3.75;;
71771;SDS011;59606;52.138;5.424;2023-04-29T13:18:07;8.85;;;3.58;;
71771;SDS011;59606;52.138;5.424;2023-04-29T13:20:34;7.63;;;3.77;;
71771;SDS011;59606;52.138;5.424;2023-04-29T13:23:07;9.35;;;3.83;;
71771;SDS011;59606;52.138;5.424;2023-04-29T13:25:34;8.88;;;4.15;;
71771;SDS011;59606;52.138;5.424;2023-04-29T13:28:01;8.20;;;3.60;;
71771;SDS011;59606;52.138;5.424;2023-04-29T13:30:27;7.78;;;3.65;;
71771;SDS011;59606;52.138;5.424;2023-04-29T13:32:55;9.87;;;4.60;;
71771;SDS011;59606;52.138;5.424;2023-04-29T13:35:29;8.98;;;4.30;;
71771;SDS011;59606;52.138;5.424;2023-04-29T13:37:56;7.63;;;4.00;;
71771;SDS011;59606;52.138;5.424;2023-04-29T13:40:22;9.23;;;3.95;;
71771;SDS011;59606;52.138;5.424;2023-04-29T13:42:53;7.70;;;3.78;;
71771;SDS011;59606;52.138;5.424;2023-04-29T13:45:31;11.37;;;4.33;;
71771;SDS011;59606;52.138;5.424;2023-04-29T13:48:04;10.18;;;3.92;;
71771;SDS011;59606;52.138;5.424;2023-04-29T13:50:51;8.27;;;3.80;;
71771;SDS011;59606;52.138;5.424;2023-04-29T13:53:20;8.63;;;4.32;;
71771;SDS011;59606;52.138;5.424;2023-04-29T13:56:07;9.57;;;4.60;;
71771;SDS011;59606;52.138;5.424;2023-04-29T13:58:36;9.07;;;4.00;;
71771;SDS011;59606;52.138;5.424;2023-04-29T14:01:23;9.45;;;4.07;;
71771;SDS011;59606;52.138;5.424;2023-04-29T14:03:52;8.27;;;3.63;;
71771;SDS011;59606;52.138;5.424;2023-04-29T14:06:21;6.20;;;3.55;;
71771;SDS011;59606;52.138;5.424;2023-04-29T14:08:47;8.43;;;3.28;;
71771;SDS011;59606;52.138;5.424;2023-04-29T14:11:14;8.53;;;4.13;;
71771;SDS011;59606;52.138;5.424;2023-04-29T14:13:41;8.20;;;3.90;;
71771;SDS011;59606;52.138;5.424;2023-04-29T14:16:07;9.18;;;3.83;;
71771;SDS011;59606;52.138;5.424;2023-04-29T14:18:34;8.80;;;4.65;;
71771;SDS011;59606;52.138;5.424;2023-04-29T14:21:01;9.77;;;4.72;;
71771;SDS011;59606;52.138;5.424;2023-04-29T14:23:27;8.77;;;4.10;;
71771;SDS011;59606;52.138;5.424;2023-04-29T14:25:54;8.13;;;3.53;;
71771;SDS011;59606;52.138;5.424;2023-04-29T14:28:41;8.02;;;4.20;;
71771;SDS011;59606;52.138;5.424;2023-04-29T14:31:07;9.95;;;4.13;;
71771;SDS011;59606;52.138;5.424;2023-04-29T14:33:34;8.90;;;4.22;;
71771;SDS011;59606;52.138;5.424;2023-04-29T14:36:00;9.60;;;4.67;;
71771;SDS011;59606;52.138;5.424;2023-04-29T14:38:28;9.18;;;3.67;;
71771;SDS011;59606;52.138;5.424;2023-04-29T14:40:54;10.18;;;3.92;;
71771;SDS011;59606;52.138;5.424;2023-04-29T14:43:21;9.32;;;4.15;;
71771;SDS011;59606;52.138;5.424;2023-04-29T14:45:48;6.55;;;3.80;;
71771;SDS011;59606;52.138;5.424;2023-04-29T14:48:14;9.70;;;3.53;;
71771;SDS011;59606;52.138;5.424;2023-04-29T14:50:41;10.82;;;3.33;;
71771;SDS011;59606;52.138;5.424;2023-04-29T14:53:07;8.43;;;3.30;;
71771;SDS011;59606;52.138;5.424;2023-04-29T14:55:34;6.60;;;3.10;;
71771;SDS011;59606;52.138;5.424;2023-04-29T14:58:00;8.23;;;3.65;;
71771;SDS011;59606;52.138;5.424;2023-04-29T15:00:30;7.87;;;2.90;;
71771;SDS011;59606;52.138;5.424;2023-04-29T15:02:57;7.03;;;2.63;;
71771;SDS011;59606;52.138;5.424;2023-04-29T15:05:24;8.57;;;3.00;;
71771;SDS011;59606;52.138;5.424;2023-04-29T15:07:50;5.40;;;2.80;;
71771;SDS011;59606;52.138;5.424;2023-04-29T15:10:17;5.13;;;2.35;;
71771;SDS011;59606;52.138;5.424;2023-04-29T15:12:48;7.10;;;3.13;;
71771;SDS011;59606;52.138;5.424;2023-04-29T15:15:17;7.95;;;2.83;;
71771;SDS011;59606;52.138;5.424;2023-04-29T15:17:43;6.65;;;3.00;;
71771;SDS011;59606;52.138;5.424;2023-04-29T15:20:10;8.35;;;2.80;;
71771;SDS011;59606;52.138;5.424;2023-04-29T15:22:37;8.52;;;3.28;;